createdAt,value
2022-11-15T00:01:55.100Z,1008.867
2022-11-15T00:06:52.814Z,1008.939
2022-11-15T00:11:52.644Z,1008.948
2022-11-15T00:16:55.780Z,1008.889
2022-11-15T00:21:55.217Z,1008.776
2022-11-15T00:26:52.695Z,1008.791
2022-11-15T00:31:52.728Z,1008.784
2022-11-15T00:36:55.622Z,1008.753
2022-11-15T00:41:52.793Z,1008.796
2022-11-15T00:46:53.142Z,1008.671
2022-11-15T00:51:52.861Z,1008.636
2022-11-15T00:56:52.756Z,1008.519
2022-11-15T01:01:52.783Z,1008.463
2022-11-15T01:06:52.679Z,1008.463
2022-11-15T01:11:52.839Z,1008.406
2022-11-15T01:16:53.986Z,1008.451
2022-11-15T01:21:53.058Z,1008.416
2022-11-15T01:26:52.649Z,1008.598
2022-11-15T01:31:54.681Z,1008.511
2022-11-15T01:36:52.573Z,1008.391
2022-11-15T01:41:52.667Z,1008.32
2022-11-15T01:46:53.131Z,1008.333
2022-11-15T01:51:54.759Z,1008.252
2022-11-15T01:56:56.362Z,1008.208
2022-11-15T02:01:52.704Z,1008.083
2022-11-15T02:06:55.203Z,1008.003
2022-11-15T02:11:54.753Z,1007.851
2022-11-15T02:16:57.310Z,1007.841
2022-11-15T02:21:58.385Z,1007.743
2022-11-15T02:27:10.336Z,1007.795
2022-11-15T02:31:56.400Z,1007.692
2022-11-15T02:36:56.702Z,1007.529
2022-11-15T02:41:55.403Z,1007.481
2022-11-15T02:47:06.028Z,1007.383
2022-11-15T02:51:55.850Z,1007.351
2022-11-15T02:56:53.739Z,1007.316
2022-11-15T03:02:00.178Z,1007.303
2022-11-15T03:06:54.734Z,1007.278
2022-11-15T03:11:57.503Z,1007.233
2022-11-15T03:16:55.808Z,1007.105
2022-11-15T03:21:53.900Z,1007.138
2022-11-15T03:26:57.561Z,1007.116
2022-11-15T03:31:55.186Z,1007.085
2022-11-15T03:36:54.489Z,1007.08
2022-11-15T03:41:53.625Z,1007.092
2022-11-15T03:47:03.711Z,1007.055
2022-11-15T03:51:52.584Z,1006.951
2022-11-15T03:56:52.520Z,1006.904
2022-11-15T04:01:52.712Z,1006.859
2022-11-15T04:06:52.850Z,1006.882
2022-11-15T04:11:53.281Z,1006.917
2022-11-15T04:16:52.576Z,1006.867
2022-11-15T04:22:04.055Z,1006.759
2022-11-15T04:26:52.690Z,1006.84
2022-11-15T04:31:52.631Z,1006.78
2022-11-15T04:37:03.988Z,1006.736
2022-11-15T04:41:52.480Z,1006.715
2022-11-15T04:46:52.718Z,1006.767
2022-11-15T04:51:53.224Z,1006.834
2022-11-15T04:56:55.490Z,1006.766
2022-11-15T05:01:54.674Z,1006.791
2022-11-15T05:06:55.500Z,1006.699
2022-11-15T05:11:52.781Z,1006.663
2022-11-15T05:16:52.936Z,1006.636
2022-11-15T05:21:52.582Z,1006.726
2022-11-15T05:26:52.730Z,1006.81
2022-11-15T05:31:52.550Z,1006.832
2022-11-15T05:36:52.595Z,1006.812
2022-11-15T05:41:53.813Z,1006.897
2022-11-15T05:46:54.210Z,1006.855
2022-11-15T05:51:53.265Z,1006.802
2022-11-15T05:56:53.399Z,1006.89
2022-11-15T06:01:52.829Z,1006.91
2022-11-15T06:06:52.703Z,1007.041
2022-11-15T06:11:52.578Z,1007.053
2022-11-15T06:16:55.145Z,1007.111
2022-11-15T06:21:52.585Z,1007.166
2022-11-15T06:26:52.826Z,1007.146
2022-11-15T06:31:53.421Z,1007.173
2022-11-15T06:36:52.487Z,1007.115
2022-11-15T06:41:52.601Z,1007.146
2022-11-15T06:46:52.703Z,1007.309
2022-11-15T06:51:52.614Z,1007.393
2022-11-15T06:56:53.700Z,1007.405
2022-11-15T07:01:54.052Z,1007.41
2022-11-15T07:06:54.531Z,1007.414
2022-11-15T07:11:52.564Z,1007.38
2022-11-15T07:16:52.524Z,1007.426
2022-11-15T07:21:52.536Z,1007.527
2022-11-15T07:26:52.789Z,1007.521
2022-11-15T07:31:52.506Z,1007.468
2022-11-15T07:36:52.539Z,1007.353
2022-11-15T07:42:04.627Z,1007.34
2022-11-15T07:46:52.548Z,1007.423
2022-11-15T07:51:52.691Z,1007.344
2022-11-15T07:56:52.637Z,1007.344
2022-11-15T08:01:52.801Z,1007.341
2022-11-15T08:06:52.691Z,1007.347
2022-11-15T08:11:52.578Z,1007.344
2022-11-15T08:16:53.303Z,1007.318
2022-11-15T08:21:53.156Z,1007.288
2022-11-15T08:26:52.800Z,1007.299
2022-11-15T08:31:54.602Z,1007.151
2022-11-15T08:36:52.559Z,1007.151
2022-11-15T08:41:52.645Z,1007.042
2022-11-15T08:46:53.839Z,1006.963
2022-11-15T08:51:52.668Z,1006.908
2022-11-15T08:56:52.574Z,1006.862
2022-11-15T09:01:52.613Z,1006.833
2022-11-15T09:06:52.574Z,1006.821
2022-11-15T09:11:53.100Z,1006.789
2022-11-15T09:16:52.461Z,1006.785
2022-11-15T09:21:52.658Z,1006.815
2022-11-15T09:26:54.275Z,1006.85
2022-11-15T09:31:52.498Z,1006.78
2022-11-15T09:36:52.475Z,1006.678
2022-11-15T09:42:02.788Z,1006.77
2022-11-15T09:46:56.436Z,1006.685
2022-11-15T09:51:55.388Z,1006.787
2022-11-15T09:56:52.840Z,1006.773
2022-11-15T10:01:56.507Z,1006.729
2022-11-15T10:06:58.685Z,1006.709
2022-11-15T10:11:52.601Z,1006.586
2022-11-15T10:17:02.732Z,1006.592
2022-11-15T10:22:01.325Z,1006.578
2022-11-15T10:26:54.922Z,1006.563
2022-11-15T10:31:52.907Z,1006.441
2022-11-15T10:36:59.026Z,1006.309
2022-11-15T10:41:52.537Z,1006.242
2022-11-15T10:47:05.122Z,1006.069
2022-11-15T10:51:57.019Z,1006.015
2022-11-15T10:56:53.562Z,1006.017
2022-11-15T11:01:55.476Z,1005.859
2022-11-15T11:06:59.165Z,1005.865
2022-11-15T11:11:53.437Z,1005.785
2022-11-15T11:16:54.470Z,1005.808
2022-11-15T11:21:59.534Z,1005.821
2022-11-15T11:27:05.497Z,1005.761
2022-11-15T11:31:59.167Z,1005.747
2022-11-15T11:36:55.103Z,1005.786
2022-11-15T11:41:58.521Z,1005.658
2022-11-15T11:47:01.476Z,1005.725
2022-11-15T11:51:56.190Z,1005.538
2022-11-15T11:56:53.238Z,1005.375
2022-11-15T12:01:53.413Z,1005.257
2022-11-15T12:06:58.185Z,1005.173
2022-11-15T12:11:55.815Z,1005.032
2022-11-15T12:16:52.470Z,1005.036
2022-11-15T12:21:55.091Z,1004.922
2022-11-15T12:26:56.450Z,1004.81
2022-11-15T12:31:53.905Z,1004.837
2022-11-15T12:36:53.357Z,1004.682
2022-11-15T12:42:02.543Z,1004.574
2022-11-15T12:47:09.045Z,1004.5
2022-11-15T12:52:09.958Z,1004.417
2022-11-15T12:57:02.377Z,1004.426
2022-11-15T13:02:04.543Z,1004.246
2022-11-15T13:06:55.030Z,1004.141
2022-11-15T13:11:59.491Z,1004.161
2022-11-15T13:16:52.594Z,1004.13
2022-11-15T13:22:08.614Z,1003.98
2022-11-15T13:26:52.576Z,1003.909
2022-11-15T13:31:52.748Z,1003.822
2022-11-15T13:36:52.565Z,1003.763
2022-11-15T13:41:55.164Z,1003.632
2022-11-15T13:46:52.642Z,1003.612
2022-11-15T13:51:55.161Z,1003.529
2022-11-15T13:56:56.450Z,1003.43
2022-11-15T14:01:54.387Z,1003.399
2022-11-15T14:07:01.151Z,1003.291
2022-11-15T14:11:59.790Z,1003.312
2022-11-15T14:16:54.638Z,1003.273
2022-11-15T14:22:03.718Z,1003.189
2022-11-15T14:26:52.764Z,1003.09
2022-11-15T14:31:55.152Z,1002.995
2022-11-15T14:36:52.526Z,1002.968
2022-11-15T14:41:55.150Z,1002.866
2022-11-15T14:46:52.448Z,1002.781
2022-11-15T14:51:52.483Z,1002.684
2022-11-15T14:56:52.501Z,1002.615
2022-11-15T15:01:52.614Z,1002.561
2022-11-15T15:06:52.514Z,1002.505
2022-11-15T15:11:53.018Z,1002.334
2022-11-15T15:16:52.478Z,1002.224
2022-11-15T15:21:52.519Z,1002.171
2022-11-15T15:26:55.454Z,1002.035
2022-11-15T15:31:52.556Z,1002.021
2022-11-15T15:36:55.057Z,1001.924
2022-11-15T15:41:56.297Z,1001.927
2022-11-15T15:46:53.295Z,1001.84
2022-11-15T15:51:52.467Z,1001.751
2022-11-15T15:56:56.012Z,1001.765
2022-11-15T16:01:52.429Z,1001.699
2022-11-15T16:06:57.721Z,1001.766
2022-11-15T16:11:52.502Z,1001.751
2022-11-15T16:16:54.714Z,1001.688
2022-11-15T16:21:52.745Z,1001.716
2022-11-15T16:26:53.306Z,1001.689
2022-11-15T16:31:52.397Z,1001.668
2022-11-15T16:36:54.597Z,1001.604
2022-11-15T16:41:52.420Z,1001.579
2022-11-15T16:46:55.627Z,1001.51
2022-11-15T16:51:54.126Z,1001.562
2022-11-15T16:56:56.271Z,1001.58
2022-11-15T17:01:54.455Z,1001.482
2022-11-15T17:06:56.917Z,1001.505
2022-11-15T17:11:52.768Z,1001.469
2022-11-15T17:16:55.720Z,1001.487
2022-11-15T17:21:53.954Z,1001.395
2022-11-15T17:26:52.604Z,1001.372
2022-11-15T17:31:56.436Z,1001.389
2022-11-15T17:36:54.963Z,1001.416
2022-11-15T17:41:52.452Z,1001.368
2022-11-15T17:46:53.226Z,1001.321
2022-11-15T17:51:52.686Z,1001.251
2022-11-15T17:56:54.307Z,1001.248
2022-11-15T18:01:53.596Z,1001.225
2022-11-15T18:06:56.149Z,1001.165
2022-11-15T18:11:55.425Z,1001.113
2022-11-15T18:16:54.687Z,1001.129
2022-11-15T18:22:04.797Z,1001.168
2022-11-15T18:26:52.652Z,1001.097
2022-11-15T18:31:55.565Z,1001.021
2022-11-15T18:36:59.327Z,1001
2022-11-15T18:41:52.479Z,1000.99
2022-11-15T18:46:54.763Z,1000.964
2022-11-15T18:51:52.648Z,1000.921
2022-11-15T18:56:53.144Z,1000.883
2022-11-15T19:01:52.763Z,1000.877
2022-11-15T19:07:00.090Z,1000.777
2022-11-15T19:11:52.897Z,1000.82
2022-11-15T19:16:54.418Z,1000.789
2022-11-15T19:21:52.721Z,1000.755
2022-11-15T19:26:57.235Z,1000.731
2022-11-15T19:31:54.876Z,1000.776
2022-11-15T19:36:58.925Z,1000.764
2022-11-15T19:41:52.473Z,1000.707
2022-11-15T19:46:52.362Z,1000.626
2022-11-15T19:51:52.437Z,1000.659
2022-11-15T19:56:52.591Z,1000.617
2022-11-15T20:01:52.544Z,1000.533
2022-11-15T20:06:59.609Z,1000.474
2022-11-15T20:11:54.982Z,1000.52
2022-11-15T20:16:54.452Z,1000.397
2022-11-15T20:21:52.435Z,1000.416
2022-11-15T20:26:55.305Z,1000.392
2022-11-15T20:31:52.333Z,1000.369
2022-11-15T20:37:02.551Z,1000.288
2022-11-15T20:41:52.453Z,1000.309
2022-11-15T20:46:55.072Z,1000.295
2022-11-15T20:51:52.384Z,1000.305
2022-11-15T20:56:55.212Z,1000.319
2022-11-15T21:01:55.361Z,1000.217
2022-11-15T21:07:01.876Z,1000.13
2022-11-15T21:12:03.759Z,1000.116
2022-11-15T21:16:52.327Z,1000.115
2022-11-15T21:21:52.408Z,1000.082
2022-11-15T21:26:52.492Z,1000.01
2022-11-15T21:31:53.118Z,1000.002
2022-11-15T21:36:52.404Z,1000.001
2022-11-15T21:41:55.071Z,999.9099
2022-11-15T21:46:52.613Z,999.8192
2022-11-15T21:51:52.361Z,999.8576
2022-11-15T21:56:52.430Z,999.7822
2022-11-15T22:02:03.698Z,999.7732
2022-11-15T22:06:52.681Z,999.6434
2022-11-15T22:11:52.371Z,999.6395
2022-11-15T22:16:52.761Z,999.5803
2022-11-15T22:21:52.437Z,999.5838
2022-11-15T22:26:52.604Z,999.539
2022-11-15T22:31:52.609Z,999.4713
2022-11-15T22:37:13.115Z,999.4164
2022-11-15T22:41:53.135Z,999.3969
2022-11-15T22:46:52.569Z,999.3781
2022-11-15T22:51:52.694Z,999.198
2022-11-15T22:56:53.069Z,999.0578
2022-11-15T23:01:53.793Z,999.1484
2022-11-15T23:06:55.018Z,999.1671
2022-11-15T23:12:03.624Z,999.0502
2022-11-15T23:16:52.405Z,999.079
2022-11-15T23:22:03.563Z,999.0499
2022-11-15T23:26:53.373Z,998.9692
2022-11-15T23:32:03.716Z,998.9586
2022-11-15T23:36:55.350Z,998.9423
2022-11-15T23:41:52.918Z,998.8527
2022-11-15T23:46:52.421Z,998.8451
2022-11-15T23:51:52.624Z,998.8226
2022-11-15T23:56:52.586Z,998.7784
